createdAt,value
2022-11-19T00:00:47.207Z,7.68
2022-11-19T00:01:49.068Z,6.72
2022-11-19T00:02:54.407Z,7.93
2022-11-19T00:03:56.518Z,9.57
2022-11-19T00:04:58.550Z,8.10
2022-11-19T00:06:11.119Z,9.48
2022-11-19T00:07:12.911Z,5.63
2022-11-19T00:08:18.626Z,8.27
2022-11-19T00:09:20.794Z,5.82
2022-11-19T00:10:22.747Z,6.35
2022-11-19T00:11:44.518Z,6.18
2022-11-19T00:12:55.451Z,5.97
2022-11-19T00:13:57.340Z,8.35
2022-11-19T00:14:59.191Z,8.55
2022-11-19T00:16:02.591Z,5.72
2022-11-19T00:17:04.447Z,5.38
2022-11-19T00:18:06.609Z,11.50
2022-11-19T00:19:09.676Z,7.50
2022-11-19T00:20:11.587Z,7.32
2022-11-19T00:21:13.697Z,7.22
2022-11-19T00:22:15.566Z,6.18
2022-11-19T00:23:17.383Z,6.22
2022-11-19T00:24:19.291Z,7.03
2022-11-19T00:25:21.742Z,6.07
2022-11-19T00:26:23.733Z,7.30
2022-11-19T00:27:25.610Z,6.18
2022-11-19T00:28:27.408Z,8.73
2022-11-19T00:29:29.218Z,5.85
2022-11-19T00:30:47.426Z,7.53
2022-11-19T00:31:50.265Z,9.38
2022-11-19T00:32:52.085Z,7.80
2022-11-19T00:33:54.592Z,8.57
2022-11-19T00:34:56.488Z,5.45
2022-11-19T00:35:58.990Z,8.13
2022-11-19T00:37:00.827Z,4.88
2022-11-19T00:38:02.674Z,4.80
2022-11-19T00:39:04.528Z,8.82
2022-11-19T00:40:07.976Z,8.57
2022-11-19T00:41:09.884Z,7.38
2022-11-19T00:42:11.670Z,7.93
2022-11-19T00:43:32.331Z,7.93
2022-11-19T00:44:36.964Z,5.10
2022-11-19T00:45:40.760Z,5.53
2022-11-19T00:46:42.594Z,7.40
2022-11-19T00:47:44.415Z,6.93
2022-11-19T00:48:47.401Z,7.68
2022-11-19T00:49:49.367Z,7.32
2022-11-19T00:50:51.164Z,5.10
2022-11-19T00:51:53.679Z,5.38
2022-11-19T00:52:55.537Z,4.40
2022-11-19T00:53:57.530Z,10.38
2022-11-19T00:54:59.312Z,6.25
2022-11-19T00:56:02.044Z,5.95
2022-11-19T00:57:04.022Z,8.52
2022-11-19T00:58:05.847Z,7.10
2022-11-19T00:59:07.649Z,6.60
2022-11-19T01:00:09.848Z,4.55
2022-11-19T01:01:12.115Z,7.85
2022-11-19T01:02:14.063Z,7.32
2022-11-19T01:03:15.866Z,8.40
2022-11-19T01:04:18.592Z,9.10
2022-11-19T01:05:20.393Z,5.07
2022-11-19T01:06:23.418Z,6.45
2022-11-19T01:07:25.307Z,9.68
2022-11-19T01:08:27.396Z,4.82
2022-11-19T01:09:29.485Z,9.57
2022-11-19T01:10:31.264Z,5.80
2022-11-19T01:11:34.356Z,9.63
2022-11-19T01:12:56.158Z,10.40
2022-11-19T01:14:01.744Z,7.53
2022-11-19T01:15:03.610Z,4.47
2022-11-19T01:16:07.240Z,6.13
2022-11-19T01:17:09.040Z,9.82
2022-11-19T01:18:10.819Z,6.38
2022-11-19T01:19:16.170Z,9.20
2022-11-19T01:20:18.036Z,8.88
2022-11-19T01:21:20.550Z,6.68
2022-11-19T01:22:22.347Z,10.68
2022-11-19T01:23:24.110Z,7.53
2022-11-19T01:24:25.944Z,8.25
2022-11-19T01:25:27.717Z,8.75
2022-11-19T01:26:29.751Z,7.45
2022-11-19T01:27:31.602Z,8.13
2022-11-19T01:28:33.859Z,6.88
2022-11-19T01:29:35.722Z,7.93
2022-11-19T01:30:40.376Z,9.65
2022-11-19T01:31:42.180Z,10.82
2022-11-19T01:32:44.028Z,8.48
2022-11-19T01:33:46.130Z,3.95
2022-11-19T01:34:49.820Z,5.20
2022-11-19T01:35:55.298Z,9.45
2022-11-19T01:36:57.135Z,6.38
2022-11-19T01:38:01.002Z,12.63
2022-11-19T01:39:03.005Z,12.73
2022-11-19T01:40:05.098Z,7.13
2022-11-19T01:41:07.128Z,7.35
2022-11-19T01:42:38.213Z,6.75
2022-11-19T01:45:01.513Z,8.07
2022-11-19T01:46:03.350Z,6.10
2022-11-19T01:47:05.161Z,4.88
2022-11-19T01:48:09.873Z,5.50
2022-11-19T01:49:18.993Z,7.35
2022-11-19T01:50:22.070Z,7.75
2022-11-19T01:51:28.687Z,7.18
2022-11-19T01:52:30.512Z,6.22
2022-11-19T01:53:33.517Z,6.70
2022-11-19T01:54:43.598Z,5.95
2022-11-19T01:55:46.769Z,11.38
2022-11-19T01:56:48.646Z,6.82
2022-11-19T01:57:54.347Z,9.68
2022-11-19T01:59:00.003Z,7.93
2022-11-19T02:00:01.840Z,8.57
2022-11-19T02:01:07.036Z,7.78
2022-11-19T02:02:09.076Z,9.23
2022-11-19T02:03:11.605Z,10.65
2022-11-19T02:04:15.025Z,5.93
2022-11-19T02:05:17.267Z,6.35
2022-11-19T02:06:19.393Z,6.00
2022-11-19T02:07:24.657Z,7.93
2022-11-19T02:08:36.347Z,7.05
2022-11-19T02:09:38.432Z,9.70
2022-11-19T02:10:40.198Z,13.70
2022-11-19T02:11:41.992Z,5.93
2022-11-19T02:13:09.783Z,5.47
2022-11-19T02:14:14.140Z,6.07
2022-11-19T02:15:23.610Z,4.97
2022-11-19T02:16:25.372Z,6.80
2022-11-19T02:17:42.276Z,6.55
2022-11-19T02:18:44.014Z,4.97
2022-11-19T02:19:51.765Z,5.35
2022-11-19T02:21:04.234Z,8.65
2022-11-19T02:22:26.130Z,6.15
2022-11-19T02:23:46.637Z,5.30
2022-11-19T02:24:52.034Z,7.32
2022-11-19T02:25:53.838Z,6.78
2022-11-19T02:27:14.547Z,5.15
2022-11-19T02:28:35.211Z,9.52
2022-11-19T02:29:36.979Z,8.30
2022-11-19T02:30:40.185Z,6.90
2022-11-19T02:31:48.135Z,5.88
2022-11-19T02:33:05.089Z,6.72
2022-11-19T02:34:09.625Z,4.53
2022-11-19T02:35:18.793Z,5.28
2022-11-19T02:36:26.028Z,7.25
2022-11-19T02:37:32.475Z,8.23
2022-11-19T02:38:42.778Z,10.98
2022-11-19T02:39:49.035Z,6.68
2022-11-19T02:40:54.582Z,6.82
2022-11-19T02:42:06.836Z,4.35
2022-11-19T02:43:08.607Z,7.43
2022-11-19T02:44:28.915Z,8.15
2022-11-19T02:45:36.838Z,5.65
2022-11-19T02:46:38.698Z,6.22
2022-11-19T02:47:41.445Z,9.60
2022-11-19T02:48:45.874Z,5.60
2022-11-19T02:49:49.428Z,8.27
2022-11-19T02:50:53.555Z,10.43
2022-11-19T02:51:55.662Z,8.77
2022-11-19T02:52:57.715Z,4.53
2022-11-19T02:53:59.621Z,7.55
2022-11-19T02:55:01.485Z,7.30
2022-11-19T02:56:13.660Z,5.82
2022-11-19T02:57:15.474Z,7.30
2022-11-19T02:58:38.360Z,8.35
2022-11-19T03:00:06.607Z,7.30
2022-11-19T03:01:27.010Z,7.93
2022-11-19T03:02:49.762Z,4.50
2022-11-19T03:04:11.043Z,8.02
2022-11-19T03:05:14.938Z,7.82
2022-11-19T03:06:19.484Z,6.60
2022-11-19T03:07:21.551Z,6.68
2022-11-19T03:08:23.453Z,5.97
2022-11-19T03:09:25.556Z,7.60
2022-11-19T03:10:32.319Z,6.22
2022-11-19T03:11:34.143Z,6.63
2022-11-19T03:12:44.726Z,5.75
2022-11-19T03:14:14.262Z,7.45
2022-11-19T03:15:40.753Z,6.95
2022-11-19T03:16:57.682Z,7.35
2022-11-19T03:18:05.478Z,7.85
2022-11-19T03:19:18.333Z,9.40
2022-11-19T03:20:27.317Z,8.35
2022-11-19T03:21:35.689Z,6.70
2022-11-19T03:22:53.232Z,7.43
2022-11-19T03:23:57.653Z,6.45
2022-11-19T03:25:18.159Z,6.85
2022-11-19T03:26:25.896Z,6.85
2022-11-19T03:27:30.005Z,8.40
2022-11-19T03:28:34.732Z,5.85
2022-11-19T03:29:38.490Z,10.55
2022-11-19T03:30:41.930Z,7.15
2022-11-19T03:31:47.718Z,6.20
2022-11-19T03:33:00.755Z,9.30
2022-11-19T03:34:04.235Z,7.18
2022-11-19T03:35:08.830Z,8.13
2022-11-19T03:36:12.754Z,5.15
2022-11-19T03:37:17.028Z,7.25
2022-11-19T03:38:23.368Z,6.28
2022-11-19T03:39:25.186Z,8.32
2022-11-19T03:40:28.251Z,7.28
2022-11-19T03:41:30.889Z,7.30
2022-11-19T03:42:33.706Z,6.47
2022-11-19T03:43:38.393Z,7.68
2022-11-19T03:44:43.959Z,8.10
2022-11-19T03:45:46.802Z,10.10
2022-11-19T03:46:51.464Z,7.07
2022-11-19T03:47:55.236Z,4.78
2022-11-19T03:48:58.541Z,7.50
2022-11-19T03:50:02.832Z,4.80
2022-11-19T03:51:08.641Z,7.72
2022-11-19T03:52:15.026Z,9.63
2022-11-19T03:53:17.702Z,8.40
2022-11-19T03:54:19.636Z,6.63
2022-11-19T03:55:25.704Z,7.63
2022-11-19T03:56:28.370Z,5.43
2022-11-19T03:57:30.141Z,7.75
2022-11-19T03:58:37.165Z,8.45
2022-11-19T03:59:39.402Z,7.28
2022-11-19T04:00:41.178Z,5.90
2022-11-19T04:01:44.579Z,10.88
2022-11-19T04:02:46.428Z,9.65
2022-11-19T04:04:08.167Z,8.70
2022-11-19T04:05:10.040Z,5.55
2022-11-19T04:06:11.843Z,7.45
2022-11-19T04:07:14.743Z,5.70
2022-11-19T04:08:16.660Z,7.75
2022-11-19T04:09:18.864Z,7.97
2022-11-19T04:10:20.791Z,8.05
2022-11-19T04:12:24.817Z,5.63
2022-11-19T04:13:26.675Z,5.22
2022-11-19T04:14:28.710Z,6.80
2022-11-19T04:15:30.682Z,9.23
2022-11-19T04:16:32.508Z,7.22
2022-11-19T04:17:34.315Z,8.50
2022-11-19T04:18:36.075Z,5.70
2022-11-19T04:19:37.946Z,7.95
2022-11-19T04:20:39.776Z,6.82
2022-11-19T04:21:41.586Z,8.88
2022-11-19T04:22:43.451Z,9.38
2022-11-19T04:23:45.248Z,6.47
2022-11-19T04:24:47.174Z,5.93
2022-11-19T04:25:49.016Z,9.65
2022-11-19T04:26:50.877Z,7.97
2022-11-19T04:27:52.714Z,7.38
2022-11-19T04:28:54.530Z,5.90
2022-11-19T04:29:56.300Z,6.93
2022-11-19T04:30:58.104Z,10.55
2022-11-19T04:31:59.962Z,8.38
2022-11-19T04:33:01.748Z,10.07
2022-11-19T04:34:03.648Z,12.50
2022-11-19T04:35:05.627Z,8.43
2022-11-19T04:36:07.711Z,12.43
2022-11-19T04:37:09.531Z,5.60
2022-11-19T04:38:11.401Z,6.80
2022-11-19T04:39:13.204Z,8.30
2022-11-19T04:40:15.033Z,7.15
2022-11-19T04:41:16.829Z,6.95
2022-11-19T04:42:18.645Z,7.70
2022-11-19T04:43:20.506Z,6.30
2022-11-19T04:44:22.485Z,9.13
2022-11-19T04:45:24.276Z,8.55
2022-11-19T04:46:26.109Z,7.35
2022-11-19T04:47:27.875Z,8.52
2022-11-19T04:48:29.654Z,7.60
2022-11-19T04:49:31.452Z,8.05
2022-11-19T04:50:33.260Z,9.80
2022-11-19T04:51:35.167Z,9.07
2022-11-19T04:52:40.842Z,5.80
2022-11-19T04:53:43.267Z,9.70
2022-11-19T04:54:45.066Z,5.95
2022-11-19T04:55:46.868Z,4.82
2022-11-19T04:56:48.725Z,9.88
2022-11-19T04:57:51.857Z,7.55
2022-11-19T04:58:53.731Z,7.60
2022-11-19T04:59:55.513Z,8.45
2022-11-19T05:00:57.333Z,6.75
2022-11-19T05:01:59.171Z,8.55
2022-11-19T05:03:01.051Z,12.32
2022-11-19T05:04:02.891Z,8.05
2022-11-19T05:05:04.910Z,7.18
2022-11-19T05:06:06.904Z,10.68
2022-11-19T05:07:08.876Z,7.78
2022-11-19T05:08:10.694Z,5.38
2022-11-19T05:09:12.548Z,7.43
2022-11-19T05:10:14.342Z,5.13
2022-11-19T05:11:16.142Z,9.40
2022-11-19T05:12:18.097Z,8.93
2022-11-19T05:13:19.925Z,13.07
2022-11-19T05:14:23.769Z,6.10
2022-11-19T05:15:29.163Z,11.13
2022-11-19T05:16:31.002Z,12.07
2022-11-19T05:17:32.828Z,6.90
2022-11-19T05:18:34.644Z,5.28
2022-11-19T05:19:36.487Z,9.52
2022-11-19T05:20:38.345Z,8.07
2022-11-19T05:21:40.154Z,5.90
2022-11-19T05:22:41.954Z,9.55
2022-11-19T05:23:43.758Z,8.68
2022-11-19T05:24:45.597Z,8.18
2022-11-19T05:25:47.447Z,8.15
2022-11-19T05:26:49.271Z,5.18
2022-11-19T05:27:51.356Z,13.02
2022-11-19T05:28:53.164Z,8.73
2022-11-19T05:29:55.064Z,9.70
2022-11-19T05:30:56.934Z,9.60
2022-11-19T05:31:58.759Z,6.72
2022-11-19T05:33:00.741Z,8.98
2022-11-19T05:34:02.516Z,5.97
2022-11-19T05:35:04.798Z,6.82
2022-11-19T05:36:06.825Z,7.00
2022-11-19T05:37:08.661Z,7.57
2022-11-19T05:38:10.538Z,7.13
2022-11-19T05:39:14.192Z,6.53
2022-11-19T05:40:19.287Z,8.30
2022-11-19T05:41:21.059Z,8.55
2022-11-19T05:42:22.854Z,6.60
2022-11-19T05:43:24.705Z,8.77
2022-11-19T05:44:26.551Z,10.73
2022-11-19T05:45:28.319Z,9.07
2022-11-19T05:46:30.115Z,7.13
2022-11-19T05:47:31.902Z,9.65
2022-11-19T05:48:33.676Z,8.75
2022-11-19T05:49:35.449Z,6.65
2022-11-19T05:50:37.347Z,6.05
2022-11-19T05:51:39.135Z,7.82
2022-11-19T05:52:40.931Z,6.43
2022-11-19T05:53:43.285Z,7.13
2022-11-19T05:54:45.086Z,7.18
2022-11-19T05:55:47.017Z,10.63
2022-11-19T05:56:48.796Z,7.82
2022-11-19T05:57:50.631Z,8.23
2022-11-19T05:58:52.468Z,8.85
2022-11-19T05:59:54.287Z,6.38
2022-11-19T06:00:56.186Z,8.95
2022-11-19T06:01:57.962Z,7.55
2022-11-19T06:02:59.828Z,8.40
2022-11-19T06:04:01.618Z,11.07
2022-11-19T06:05:03.538Z,7.72
2022-11-19T06:06:05.451Z,8.38
2022-11-19T06:07:07.290Z,9.57
2022-11-19T06:08:09.082Z,7.13
2022-11-19T06:09:11.790Z,6.18
2022-11-19T06:10:13.628Z,8.27
2022-11-19T06:11:34.373Z,9.68
2022-11-19T06:12:36.171Z,8.07
2022-11-19T06:13:37.958Z,10.35
2022-11-19T06:14:39.772Z,10.00
2022-11-19T06:15:41.600Z,7.45
2022-11-19T06:16:43.430Z,10.23
2022-11-19T06:17:45.315Z,12.95
2022-11-19T06:18:47.111Z,5.50
2022-11-19T06:19:48.910Z,8.80
2022-11-19T06:20:50.708Z,8.98
2022-11-19T06:21:52.979Z,8.32
2022-11-19T06:22:54.940Z,7.88
2022-11-19T06:23:56.812Z,10.75
2022-11-19T06:24:58.575Z,9.43
2022-11-19T06:26:00.379Z,8.88
2022-11-19T06:27:02.152Z,10.10
2022-11-19T06:28:03.973Z,7.78
2022-11-19T06:29:06.194Z,10.18
2022-11-19T06:30:08.290Z,7.65
2022-11-19T06:31:10.079Z,7.35
2022-11-19T06:32:11.926Z,7.65
2022-11-19T06:33:13.736Z,8.18
2022-11-19T06:34:15.538Z,8.23
2022-11-19T06:35:17.341Z,10.75
2022-11-19T06:36:19.362Z,10.02
2022-11-19T06:37:21.196Z,10.30
2022-11-19T06:38:23.016Z,8.73
2022-11-19T06:39:24.792Z,7.65
2022-11-19T06:40:26.587Z,9.50
2022-11-19T06:41:28.552Z,9.63
2022-11-19T06:42:36.056Z,8.77
2022-11-19T06:43:37.863Z,9.82
2022-11-19T06:44:39.641Z,8.48
2022-11-19T06:45:41.432Z,8.30
2022-11-19T06:46:43.234Z,7.70
2022-11-19T06:47:46.743Z,8.85
2022-11-19T06:48:48.615Z,7.05
2022-11-19T06:49:50.386Z,9.70
2022-11-19T06:50:52.187Z,13.30
2022-11-19T06:51:54.051Z,7.28
2022-11-19T06:52:55.939Z,10.02
2022-11-19T06:53:57.773Z,11.45
2022-11-19T06:54:59.613Z,7.25
2022-11-19T06:56:02.514Z,6.47
2022-11-19T06:57:04.325Z,10.02
2022-11-19T06:58:07.586Z,10.95
2022-11-19T06:59:09.392Z,9.93
2022-11-19T07:00:12.275Z,9.52
2022-11-19T07:01:17.134Z,9.55
2022-11-19T07:02:21.458Z,7.05
2022-11-19T07:03:23.666Z,8.73
2022-11-19T07:04:25.417Z,9.18
2022-11-19T07:05:27.260Z,9.20
2022-11-19T07:06:29.032Z,10.15
2022-11-19T07:07:30.871Z,8.38
2022-11-19T07:08:36.581Z,11.10
2022-11-19T07:09:39.396Z,9.43
2022-11-19T07:10:42.989Z,10.10
2022-11-19T07:11:44.821Z,10.38
2022-11-19T07:12:46.719Z,8.48
2022-11-19T07:13:57.757Z,10.00
2022-11-19T07:15:03.999Z,10.05
2022-11-19T07:16:06.303Z,9.82
2022-11-19T07:17:08.161Z,10.25
2022-11-19T07:18:10.437Z,8.95
2022-11-19T07:20:30.559Z,6.43
2022-11-19T07:21:32.678Z,10.90
2022-11-19T07:22:34.531Z,9.45
2022-11-19T07:23:36.291Z,7.40
2022-11-19T07:24:38.083Z,10.68
2022-11-19T07:25:39.870Z,9.45
2022-11-19T07:26:41.747Z,9.88
2022-11-19T07:27:43.644Z,8.80
2022-11-19T07:28:45.418Z,8.20
2022-11-19T07:29:47.232Z,8.90
2022-11-19T07:30:49.067Z,9.50
2022-11-19T07:31:53.147Z,9.07
2022-11-19T07:32:55.047Z,10.65
2022-11-19T07:33:56.897Z,9.25
2022-11-19T07:34:58.890Z,10.88
2022-11-19T07:36:00.809Z,10.23
2022-11-19T07:37:02.823Z,9.65
2022-11-19T07:38:05.014Z,11.20
2022-11-19T07:39:07.113Z,12.65
2022-11-19T07:40:10.952Z,11.10
2022-11-19T07:41:33.491Z,10.85
2022-11-19T07:42:50.528Z,9.32
2022-11-19T07:43:52.483Z,11.63
2022-11-19T07:44:55.203Z,12.50
2022-11-19T07:45:57.190Z,9.85
2022-11-19T07:46:59.108Z,9.45
2022-11-19T07:48:00.890Z,15.35
2022-11-19T07:49:02.758Z,9.60
2022-11-19T07:50:04.993Z,9.38
2022-11-19T07:51:06.804Z,10.40
2022-11-19T07:52:08.585Z,11.45
2022-11-19T07:53:10.422Z,15.65
2022-11-19T07:54:12.924Z,13.70
2022-11-19T07:55:15.459Z,11.65
2022-11-19T07:56:17.711Z,14.00
2022-11-19T07:57:19.874Z,13.02
2022-11-19T07:58:21.669Z,14.65
2022-11-19T07:59:23.512Z,13.23
2022-11-19T08:00:25.404Z,13.27
2022-11-19T08:01:27.564Z,9.25
2022-11-19T08:02:29.421Z,12.30
2022-11-19T08:03:31.238Z,13.57
2022-11-19T08:04:33.077Z,9.55
2022-11-19T08:05:38.174Z,6.47
2022-11-19T08:06:39.993Z,4.90
2022-11-19T08:07:41.946Z,6.20
2022-11-19T08:08:44.241Z,9.95
2022-11-19T08:09:45.997Z,7.20
2022-11-19T08:10:47.790Z,5.95
2022-11-19T08:11:49.725Z,7.53
2022-11-19T08:13:03.166Z,7.63
2022-11-19T08:14:05.050Z,7.22
2022-11-19T08:15:07.228Z,6.18
2022-11-19T08:16:10.626Z,6.07
2022-11-19T08:17:31.286Z,9.85
2022-11-19T08:18:33.309Z,7.05
2022-11-19T08:19:35.227Z,4.95
2022-11-19T08:20:37.135Z,5.75
2022-11-19T08:21:42.880Z,4.93
2022-11-19T08:22:44.673Z,7.47
2022-11-19T08:23:46.461Z,5.32
2022-11-19T08:24:48.607Z,6.97
2022-11-19T08:25:50.469Z,6.75
2022-11-19T08:26:52.361Z,8.23
2022-11-19T08:27:54.135Z,7.43
2022-11-19T08:28:55.974Z,5.15
2022-11-19T08:29:57.863Z,5.90
2022-11-19T08:31:06.939Z,7.47
2022-11-19T08:32:08.822Z,5.00
2022-11-19T08:33:10.723Z,5.25
2022-11-19T08:34:12.588Z,6.00
2022-11-19T08:35:14.382Z,7.45
2022-11-19T08:36:16.151Z,5.85
2022-11-19T08:37:18.142Z,5.15
2022-11-19T08:38:19.951Z,5.45
2022-11-19T08:39:21.743Z,5.38
2022-11-19T08:40:23.954Z,8.70
2022-11-19T08:41:45.039Z,6.22
2022-11-19T08:44:04.061Z,6.75
2022-11-19T08:45:06.273Z,5.72
2022-11-19T08:46:08.681Z,4.57
2022-11-19T08:47:10.461Z,6.22
2022-11-19T08:48:15.094Z,5.25
2022-11-19T08:49:17.287Z,6.70
2022-11-19T08:50:19.153Z,8.88
2022-11-19T08:51:20.926Z,5.28
2022-11-19T08:52:22.710Z,6.95
2022-11-19T08:53:24.641Z,7.07
2022-11-19T08:54:26.477Z,5.65
2022-11-19T08:55:29.826Z,6.38
2022-11-19T08:56:31.794Z,6.47
2022-11-19T08:57:33.699Z,5.05
2022-11-19T08:58:36.024Z,4.70
2022-11-19T08:59:37.819Z,4.85
2022-11-19T09:00:39.671Z,5.32
2022-11-19T09:01:41.518Z,4.85
2022-11-19T09:02:43.323Z,7.10
2022-11-19T09:03:45.424Z,4.45
2022-11-19T09:04:47.272Z,7.35
2022-11-19T09:05:49.066Z,4.68
2022-11-19T09:06:50.899Z,7.40
2022-11-19T09:07:54.281Z,8.02
2022-11-19T09:08:56.146Z,5.65
2022-11-19T09:09:57.970Z,5.15
2022-11-19T09:11:00.052Z,4.07
2022-11-19T09:12:01.838Z,6.65
2022-11-19T09:13:04.478Z,7.05
2022-11-19T09:14:06.278Z,3.88
2022-11-19T09:15:08.686Z,5.53
2022-11-19T09:16:10.917Z,5.32
2022-11-19T09:17:13.432Z,4.95
2022-11-19T09:18:15.397Z,5.38
2022-11-19T09:19:17.405Z,5.57
2022-11-19T09:20:19.338Z,5.13
2022-11-19T09:21:21.159Z,6.90
2022-11-19T09:22:22.945Z,5.63
2022-11-19T09:23:25.648Z,6.32
2022-11-19T09:24:27.816Z,3.92
2022-11-19T09:25:29.883Z,4.70
2022-11-19T09:26:31.871Z,5.47
2022-11-19T09:27:33.644Z,5.35
2022-11-19T09:28:36.100Z,4.45
2022-11-19T09:29:37.896Z,6.20
2022-11-19T09:30:39.763Z,4.47
2022-11-19T09:31:41.638Z,5.55
2022-11-19T09:32:43.439Z,5.03
2022-11-19T09:33:46.750Z,4.15
2022-11-19T09:34:48.537Z,5.43
2022-11-19T09:35:50.345Z,5.97
2022-11-19T09:36:52.139Z,5.28
2022-11-19T09:37:54.037Z,4.38
2022-11-19T09:38:56.851Z,7.05
2022-11-19T09:39:58.704Z,5.78
2022-11-19T09:41:05.198Z,3.78
2022-11-19T09:42:10.240Z,4.50
2022-11-19T09:43:17.498Z,4.70
2022-11-19T09:44:22.772Z,6.05
2022-11-19T09:45:27.683Z,4.22
2022-11-19T09:46:36.763Z,6.18
2022-11-19T09:47:45.055Z,4.38
2022-11-19T09:48:48.198Z,5.43
2022-11-19T09:49:55.614Z,3.75
2022-11-19T09:51:05.605Z,3.47
2022-11-19T09:52:10.147Z,5.85
2022-11-19T09:53:17.759Z,5.75
2022-11-19T09:54:21.863Z,5.25
2022-11-19T09:55:27.417Z,3.83
2022-11-19T09:56:39.951Z,5.28
2022-11-19T09:58:08.484Z,6.65
2022-11-19T09:59:19.245Z,4.10
2022-11-19T10:01:23.323Z,7.40
2022-11-19T10:02:25.190Z,4.97
2022-11-19T10:03:32.777Z,4.03
2022-11-19T10:04:36.466Z,4.85
2022-11-19T10:05:38.224Z,3.65
2022-11-19T10:06:49.137Z,3.92
2022-11-19T10:08:01.118Z,5.88
2022-11-19T10:09:03.121Z,5.15
2022-11-19T10:10:12.059Z,4.97
2022-11-19T10:11:14.385Z,5.70
2022-11-19T10:12:35.185Z,3.30
2022-11-19T10:13:55.136Z,5.15
2022-11-19T10:15:02.844Z,3.90
2022-11-19T10:16:25.093Z,4.07
2022-11-19T10:17:40.999Z,3.70
2022-11-19T10:19:12.111Z,3.50
2022-11-19T10:21:18.859Z,4.15
2022-11-19T10:22:22.518Z,6.03
2022-11-19T10:23:33.890Z,5.30
2022-11-19T10:24:41.894Z,5.07
2022-11-19T10:25:47.661Z,3.80
2022-11-19T10:26:55.073Z,5.53
2022-11-19T10:28:15.857Z,3.92
2022-11-19T10:29:20.506Z,4.82
2022-11-19T10:30:23.459Z,3.63
2022-11-19T10:31:25.210Z,3.42
2022-11-19T10:32:32.699Z,3.10
2022-11-19T10:33:43.545Z,6.15
2022-11-19T10:35:51.624Z,3.85
2022-11-19T10:36:58.571Z,5.45
2022-11-19T10:38:06.154Z,4.15
2022-11-19T10:39:07.899Z,5.18
2022-11-19T10:40:14.338Z,4.90
2022-11-19T10:41:21.548Z,5.60
2022-11-19T10:42:26.370Z,5.80
2022-11-19T10:43:31.021Z,6.15
2022-11-19T10:44:41.639Z,5.63
2022-11-19T10:45:43.458Z,4.10
2022-11-19T10:46:46.410Z,5.85
2022-11-19T10:47:54.708Z,4.15
2022-11-19T10:48:58.282Z,7.10
2022-11-19T10:50:00.086Z,6.13
2022-11-19T10:51:02.598Z,4.88
2022-11-19T10:52:05.038Z,5.68
2022-11-19T10:53:23.207Z,5.05
2022-11-19T10:54:27.791Z,4.88
2022-11-19T10:55:43.432Z,4.07
2022-11-19T10:56:45.232Z,6.85
2022-11-19T10:57:48.593Z,4.28
2022-11-19T10:58:55.173Z,4.28
2022-11-19T10:59:57.361Z,5.13
2022-11-19T11:01:00.590Z,4.72
2022-11-19T11:02:16.974Z,3.42
2022-11-19T11:03:21.611Z,5.45
2022-11-19T11:04:24.406Z,3.67
2022-11-19T11:05:26.232Z,4.32
2022-11-19T11:06:47.963Z,4.25
2022-11-19T11:08:00.978Z,4.28
2022-11-19T11:09:02.772Z,3.78
2022-11-19T11:10:23.857Z,5.22
2022-11-19T11:11:47.005Z,3.55
2022-11-19T11:13:07.525Z,8.50
2022-11-19T11:14:29.384Z,3.65
2022-11-19T11:15:31.642Z,4.53
2022-11-19T11:16:39.478Z,4.15
2022-11-19T11:17:42.542Z,3.97
2022-11-19T11:18:45.543Z,6.65
2022-11-19T11:20:01.755Z,5.47
2022-11-19T11:21:03.575Z,6.13
2022-11-19T11:22:05.442Z,4.65
2022-11-19T11:23:11.453Z,4.20
2022-11-19T11:24:13.809Z,4.50
2022-11-19T11:25:26.146Z,8.30
2022-11-19T11:26:29.463Z,5.03
2022-11-19T11:27:33.504Z,4.20
2022-11-19T11:28:35.791Z,3.72
2022-11-19T11:29:37.603Z,5.18
2022-11-19T11:30:58.672Z,6.95
2022-11-19T11:32:12.692Z,5.22
2022-11-19T11:33:29.803Z,4.25
2022-11-19T11:34:43.870Z,2.80
2022-11-19T11:35:46.056Z,3.78
2022-11-19T11:36:48.056Z,3.38
2022-11-19T11:37:50.049Z,4.93
2022-11-19T11:38:53.237Z,4.93
2022-11-19T11:39:55.839Z,4.55
2022-11-19T11:41:31.516Z,4.80
2022-11-19T11:42:26.387Z,5.18
2022-11-19T11:43:29.766Z,4.40
2022-11-19T11:44:35.770Z,3.72
2022-11-19T11:45:37.694Z,4.47
2022-11-19T11:46:49.767Z,4.55
2022-11-19T11:47:51.816Z,3.30
2022-11-19T11:48:53.624Z,4.72
2022-11-19T11:49:57.566Z,5.05
2022-11-19T11:50:59.432Z,6.13
2022-11-19T11:52:03.529Z,4.78
2022-11-19T11:53:09.398Z,5.03
2022-11-19T11:54:18.360Z,5.22
2022-11-19T11:55:23.489Z,6.60
2022-11-19T11:56:25.311Z,6.80
2022-11-19T11:57:28.909Z,5.00
2022-11-19T11:58:31.958Z,5.75
2022-11-19T11:59:33.728Z,5.70
2022-11-19T12:00:39.331Z,3.53
2022-11-19T12:01:41.933Z,4.50
2022-11-19T12:02:58.789Z,5.32
2022-11-19T12:04:00.579Z,5.85
2022-11-19T12:05:03.707Z,4.88
2022-11-19T12:06:05.632Z,4.32
2022-11-19T12:07:16.537Z,5.38
2022-11-19T12:08:36.886Z,4.55
2022-11-19T12:09:50.449Z,6.32
2022-11-19T12:10:57.647Z,4.90
2022-11-19T12:12:03.604Z,5.25
2022-11-19T12:13:11.327Z,5.75
2022-11-19T12:14:14.061Z,3.80
2022-11-19T12:15:38.913Z,4.47
2022-11-19T12:16:44.782Z,6.63
2022-11-19T12:17:49.426Z,5.05
2022-11-19T12:19:09.408Z,4.90
2022-11-19T12:20:29.935Z,5.10
2022-11-19T12:21:37.830Z,4.38
2022-11-19T12:22:52.037Z,4.55
2022-11-19T12:24:12.607Z,5.43
2022-11-19T12:25:25.803Z,4.40
2022-11-19T12:26:33.597Z,5.18
2022-11-19T12:27:46.499Z,5.93
2022-11-19T12:28:54.317Z,4.78
2022-11-19T12:30:01.445Z,4.72
2022-11-19T12:31:03.257Z,5.80
2022-11-19T12:32:10.979Z,5.97
2022-11-19T12:33:32.123Z,4.22
2022-11-19T12:34:57.231Z,4.00
2022-11-19T12:35:59.008Z,5.55
2022-11-19T12:37:27.069Z,4.72
2022-11-19T12:38:34.758Z,5.22
2022-11-19T12:39:49.782Z,7.18
2022-11-19T12:40:51.591Z,3.65
2022-11-19T12:42:02.642Z,3.95
2022-11-19T12:43:04.420Z,7.00
2022-11-19T12:44:12.784Z,4.15
2022-11-19T12:45:17.432Z,3.30
2022-11-19T12:46:25.349Z,5.05
2022-11-19T12:47:27.113Z,4.63
2022-11-19T12:48:37.617Z,6.00
2022-11-19T12:49:58.300Z,3.10
2022-11-19T12:51:03.057Z,3.63
2022-11-19T12:52:10.585Z,3.10
2022-11-19T12:53:32.393Z,5.88
2022-11-19T12:54:44.942Z,4.95
2022-11-19T12:55:53.298Z,4.25
2022-11-19T12:56:55.061Z,4.68
2022-11-19T12:58:04.314Z,3.72
2022-11-19T12:59:28.813Z,4.85
2022-11-19T13:00:31.127Z,3.97
2022-11-19T13:01:35.658Z,6.43
2022-11-19T13:03:00.958Z,4.40
2022-11-19T13:04:15.821Z,4.63
2022-11-19T13:05:19.264Z,3.58
2022-11-19T13:06:40.839Z,5.10
2022-11-19T13:07:54.295Z,3.63
2022-11-19T13:08:59.733Z,4.68
2022-11-19T13:10:01.533Z,4.43
2022-11-19T13:11:11.924Z,3.97
2022-11-19T13:12:16.287Z,4.03
2022-11-19T13:13:22.441Z,3.55
2022-11-19T13:14:35.389Z,3.47
2022-11-19T13:15:44.154Z,4.65
2022-11-19T13:16:46.354Z,4.35
2022-11-19T13:17:50.245Z,3.67
2022-11-19T13:18:53.938Z,4.50
2022-11-19T13:19:58.252Z,5.78
2022-11-19T13:21:05.083Z,6.03
2022-11-19T13:22:12.483Z,2.15
2022-11-19T13:23:26.394Z,3.55
2022-11-19T13:24:33.851Z,5.70
2022-11-19T13:25:39.827Z,2.97
2022-11-19T13:26:41.646Z,2.72
2022-11-19T13:27:43.571Z,3.75
2022-11-19T13:28:51.273Z,5.00
2022-11-19T13:29:55.399Z,2.95
2022-11-19T13:31:00.441Z,5.00
2022-11-19T13:32:04.298Z,4.57
2022-11-19T13:33:22.755Z,4.38
2022-11-19T13:34:36.665Z,4.05
2022-11-19T13:35:44.458Z,3.53
2022-11-19T13:36:51.752Z,3.30
2022-11-19T13:37:58.215Z,3.10
2022-11-19T13:39:12.152Z,2.88
2022-11-19T13:40:29.322Z,3.95
2022-11-19T13:41:32.539Z,5.15
2022-11-19T13:43:17.178Z,3.17
2022-11-19T13:44:34.853Z,4.18
2022-11-19T13:45:37.114Z,2.72
2022-11-19T13:46:44.065Z,2.50
2022-11-19T13:47:45.879Z,4.22
2022-11-19T13:48:53.540Z,4.50
2022-11-19T13:50:04.759Z,4.20
2022-11-19T13:51:09.863Z,4.13
2022-11-19T13:52:19.261Z,4.10
2022-11-19T13:53:32.431Z,4.40
2022-11-19T13:54:35.443Z,3.92
2022-11-19T13:55:41.255Z,3.40
2022-11-19T13:56:45.201Z,3.15
2022-11-19T13:57:48.338Z,3.92
2022-11-19T13:58:54.850Z,4.47
2022-11-19T14:00:01.479Z,5.28
2022-11-19T14:01:33.742Z,6.53
2022-11-19T14:02:54.418Z,6.93
2022-11-19T14:04:12.961Z,13.73
2022-11-19T14:05:20.950Z,11.40
2022-11-19T14:06:41.472Z,10.93
2022-11-19T14:07:51.425Z,17.98
2022-11-19T14:08:55.971Z,26.65
2022-11-19T14:09:57.760Z,25.60
2022-11-19T14:11:14.927Z,28.98
2022-11-19T14:12:25.748Z,15.32
2022-11-19T14:15:09.497Z,8.40
2022-11-19T14:16:42.034Z,6.55
2022-11-19T14:18:28.914Z,6.30
2022-11-19T14:20:05.903Z,8.05
2022-11-19T14:21:45.030Z,4.85
2022-11-19T14:23:15.062Z,5.97
2022-11-19T14:24:44.628Z,4.28
2022-11-19T14:26:07.412Z,5.82
2022-11-19T14:27:19.794Z,5.20
2022-11-19T14:28:59.811Z,6.80
2022-11-19T14:30:02.967Z,6.38
2022-11-19T14:31:04.976Z,4.65
2022-11-19T14:32:06.780Z,5.03
2022-11-19T14:33:26.963Z,3.85
2022-11-19T14:34:32.722Z,4.43
2022-11-19T14:35:35.937Z,5.10
2022-11-19T14:36:47.415Z,6.47
2022-11-19T14:37:51.750Z,10.48
2022-11-19T14:38:55.091Z,8.38
2022-11-19T14:40:08.384Z,5.50